sensor_id;sensor_type;location;lat;lon;timestamp;pressure;altitude;pressure_sealevel;temperature;humidity
46412;BME280;32113;42.012;24.870;2023-02-22T00:00:28;98795.56;;;15.76;26.49
46412;BME280;32113;42.012;24.870;2023-02-22T00:05:35;98794.88;;;15.96;26.55
46412;BME280;32113;42.012;24.870;2023-02-22T00:08:04;98799.59;;;16.09;26.33
46412;BME280;32113;42.012;24.870;2023-02-22T00:10:33;98801.00;;;16.18;26.18
46412;BME280;32113;42.012;24.870;2023-02-22T00:12:59;98810.72;;;16.11;26.23
46412;BME280;32113;42.012;24.870;2023-02-22T00:15:25;98804.44;;;16.18;26.06
46412;BME280;32113;42.012;24.870;2023-02-22T00:17:53;98811.25;;;15.97;26.44
46412;BME280;32113;42.012;24.870;2023-02-22T00:20:19;98812.47;;;16.10;26.32
46412;BME280;32113;42.012;24.870;2023-02-22T00:22:48;98809.47;;;16.21;26.34
46412;BME280;32113;42.012;24.870;2023-02-22T00:25:17;98809.16;;;16.07;26.24
46412;BME280;32113;42.012;24.870;2023-02-22T00:27:43;98815.19;;;15.82;26.70
46412;BME280;32113;42.012;24.870;2023-02-22T00:30:15;98808.41;;;15.79;26.78
46412;BME280;32113;42.012;24.870;2023-02-22T00:32:46;98802.94;;;15.87;26.61
46412;BME280;32113;42.012;24.870;2023-02-22T00:35:13;98809.22;;;15.80;26.64
46412;BME280;32113;42.012;24.870;2023-02-22T00:37:39;98807.31;;;15.85;26.78
46412;BME280;32113;42.012;24.870;2023-02-22T00:40:13;98806.19;;;15.92;26.64
46412;BME280;32113;42.012;24.870;2023-02-22T00:42:39;98809.22;;;16.05;26.52
46412;BME280;32113;42.012;24.870;2023-02-22T00:45:05;98803.75;;;16.13;26.48
46412;BME280;32113;42.012;24.870;2023-02-22T00:47:31;98802.19;;;16.09;26.29
46412;BME280;32113;42.012;24.870;2023-02-22T00:49:57;98802.13;;;16.10;26.19
46412;BME280;32113;42.012;24.870;2023-02-22T00:52:25;98793.94;;;16.21;26.32
46412;BME280;32113;42.012;24.870;2023-02-22T00:54:50;98789.44;;;16.26;26.10
46412;BME280;32113;42.012;24.870;2023-02-22T00:57:16;98804.22;;;16.00;26.23
46412;BME280;32113;42.012;24.870;2023-02-22T00:59:43;98792.34;;;15.95;26.33
46412;BME280;32113;42.012;24.870;2023-02-22T01:02:08;98793.19;;;15.95;26.61
46412;BME280;32113;42.012;24.870;2023-02-22T01:04:34;98794.16;;;15.91;26.55
46412;BME280;32113;42.012;24.870;2023-02-22T01:06:59;98799.16;;;15.97;26.64
46412;BME280;32113;42.012;24.870;2023-02-22T01:09:25;98796.41;;;16.02;26.63
46412;BME280;32113;42.012;24.870;2023-02-22T01:11:54;98795.94;;;16.14;26.11
46412;BME280;32113;42.012;24.870;2023-02-22T01:14:22;98786.84;;;16.26;26.07
46412;BME280;32113;42.012;24.870;2023-02-22T01:16:49;98797.47;;;16.42;26.06
46412;BME280;32113;42.012;24.870;2023-02-22T01:19:15;98795.38;;;16.52;25.86
46412;BME280;32113;42.012;24.870;2023-02-22T01:21:41;98802.13;;;16.57;25.88
46412;BME280;32113;42.012;24.870;2023-02-22T01:24:07;98803.66;;;16.38;26.16
46412;BME280;32113;42.012;24.870;2023-02-22T01:26:33;98812.66;;;16.06;26.85
46412;BME280;32113;42.012;24.870;2023-02-22T01:28:59;98809.50;;;15.97;26.75
46412;BME280;32113;42.012;24.870;2023-02-22T01:31:24;98816.09;;;15.81;27.05
46412;BME280;32113;42.012;24.870;2023-02-22T01:33:50;98812.34;;;15.39;27.57
46412;BME280;32113;42.012;24.870;2023-02-22T01:36:16;98822.38;;;15.22;27.80
46412;BME280;32113;42.012;24.870;2023-02-22T01:38:43;98822.56;;;14.89;28.20
46412;BME280;32113;42.012;24.870;2023-02-22T01:41:10;98821.94;;;14.52;28.58
46412;BME280;32113;42.012;24.870;2023-02-22T01:43:36;98829.13;;;14.12;29.32
46412;BME280;32113;42.012;24.870;2023-02-22T01:53:25;98820.25;;;13.59;30.34
46412;BME280;32113;42.012;24.870;2023-02-22T01:55:54;98820.25;;;13.24;31.22
46412;BME280;32113;42.012;24.870;2023-02-22T01:58:21;98817.00;;;12.80;31.68
46412;BME280;32113;42.012;24.870;2023-02-22T02:00:48;98815.03;;;12.53;32.30
46412;BME280;32113;42.012;24.870;2023-02-22T02:03:19;98805.47;;;12.58;32.22
46412;BME280;32113;42.012;24.870;2023-02-22T02:05:47;98800.63;;;12.46;32.10
46412;BME280;32113;42.012;24.870;2023-02-22T02:08:40;98801.03;;;12.65;32.29
46412;BME280;32113;42.012;24.870;2023-02-22T02:11:15;98803.00;;;12.92;31.68
46412;BME280;32113;42.012;24.870;2023-02-22T02:13:41;98792.19;;;13.12;31.54
46412;BME280;32113;42.012;24.870;2023-02-22T02:16:06;98785.94;;;13.22;31.42
46412;BME280;32113;42.012;24.870;2023-02-22T02:18:31;98786.16;;;13.48;31.13
46412;BME280;32113;42.012;24.870;2023-02-22T02:26:26;98793.50;;;14.54;29.28
46412;BME280;32113;42.012;24.870;2023-02-22T02:29:10;98783.19;;;14.82;28.42
46412;BME280;32113;42.012;24.870;2023-02-22T02:40:14;98796.09;;;15.09;28.61
46412;BME280;32113;42.012;24.870;2023-02-22T02:42:52;98801.94;;;14.88;28.47
46412;BME280;32113;42.012;24.870;2023-02-22T02:45:50;98801.81;;;14.92;28.74
46412;BME280;32113;42.012;24.870;2023-02-22T02:48:22;98793.06;;;14.96;28.77
46412;BME280;32113;42.012;24.870;2023-02-22T02:50:50;98794.25;;;14.86;28.58
46412;BME280;32113;42.012;24.870;2023-02-22T02:53:23;98797.31;;;14.99;28.26
46412;BME280;32113;42.012;24.870;2023-02-22T02:55:49;98796.41;;;15.00;28.21
46412;BME280;32113;42.012;24.870;2023-02-22T02:58:18;98799.75;;;15.02;27.71
46412;BME280;32113;42.012;24.870;2023-02-22T03:00:44;98794.28;;;15.11;27.52
46412;BME280;32113;42.012;24.870;2023-02-22T03:09:07;98818.56;;;15.33;27.55
46412;BME280;32113;42.012;24.870;2023-02-22T03:12:06;98821.00;;;14.55;28.80
46412;BME280;32113;42.012;24.870;2023-02-22T03:17:21;98822.66;;;13.65;30.40
46412;BME280;32113;42.012;24.870;2023-02-22T03:19:57;98832.22;;;13.25;31.31
46412;BME280;32113;42.012;24.870;2023-02-22T03:22:30;98840.16;;;13.18;31.50
46412;BME280;32113;42.012;24.870;2023-02-22T03:27:49;98844.13;;;12.55;32.38
46412;BME280;32113;42.012;24.870;2023-02-22T03:30:19;98824.50;;;12.51;32.88
46412;BME280;32113;42.012;24.870;2023-02-22T03:32:50;98849.81;;;12.30;32.77
46412;BME280;32113;42.012;24.870;2023-02-22T03:35:23;98841.88;;;11.95;33.88
46412;BME280;32113;42.012;24.870;2023-02-22T03:37:56;98842.00;;;11.89;33.56
46412;BME280;32113;42.012;24.870;2023-02-22T03:40:28;98852.41;;;11.83;34.16
46412;BME280;32113;42.012;24.870;2023-02-22T03:43:01;98848.19;;;11.80;34.25
46412;BME280;32113;42.012;24.870;2023-02-22T03:45:29;98863.50;;;11.85;34.06
46412;BME280;32113;42.012;24.870;2023-02-22T03:48:27;98854.91;;;11.86;33.79
46412;BME280;32113;42.012;24.870;2023-02-22T03:50:55;98873.06;;;11.78;34.20
46412;BME280;32113;42.012;24.870;2023-02-22T03:53:23;98859.66;;;11.61;34.28
46412;BME280;32113;42.012;24.870;2023-02-22T03:55:50;98859.88;;;11.48;34.68
46412;BME280;32113;42.012;24.870;2023-02-22T03:58:19;98864.47;;;11.27;35.24
46412;BME280;32113;42.012;24.870;2023-02-22T04:00:46;98853.47;;;11.21;35.34
46412;BME280;32113;42.012;24.870;2023-02-22T04:03:12;98863.03;;;11.11;36.12
46412;BME280;32113;42.012;24.870;2023-02-22T04:05:37;98864.91;;;10.99;36.29
46412;BME280;32113;42.012;24.870;2023-02-22T04:08:03;98872.75;;;10.90;36.32
46412;BME280;32113;42.012;24.870;2023-02-22T04:10:30;98872.59;;;11.01;36.10
46412;BME280;32113;42.012;24.870;2023-02-22T04:12:57;98873.47;;;11.01;35.79
46412;BME280;32113;42.012;24.870;2023-02-22T04:15:23;98859.00;;;10.96;36.26
46412;BME280;32113;42.012;24.870;2023-02-22T04:17:48;98874.50;;;10.88;36.48
46412;BME280;32113;42.012;24.870;2023-02-22T04:20:16;98868.72;;;10.73;36.46
46412;BME280;32113;42.012;24.870;2023-02-22T04:22:44;98873.91;;;10.69;37.20
46412;BME280;32113;42.012;24.870;2023-02-22T04:25:10;98867.94;;;10.68;37.00
46412;BME280;32113;42.012;24.870;2023-02-22T04:27:35;98879.09;;;10.67;37.29
46412;BME280;32113;42.012;24.870;2023-02-22T04:30:01;98862.81;;;10.68;37.11
46412;BME280;32113;42.012;24.870;2023-02-22T04:32:26;98873.13;;;10.63;37.31
46412;BME280;32113;42.012;24.870;2023-02-22T04:34:51;98879.13;;;10.61;37.35
46412;BME280;32113;42.012;24.870;2023-02-22T04:37:17;98867.88;;;10.71;36.93
46412;BME280;32113;42.012;24.870;2023-02-22T04:39:42;98861.06;;;10.70;37.06
46412;BME280;32113;42.012;24.870;2023-02-22T04:42:08;98867.00;;;10.74;37.11
46412;BME280;32113;42.012;24.870;2023-02-22T04:44:33;98867.81;;;10.77;37.09
46412;BME280;32113;42.012;24.870;2023-02-22T04:46:58;98866.16;;;10.73;37.16
46412;BME280;32113;42.012;24.870;2023-02-22T04:49:24;98868.75;;;10.72;37.13
46412;BME280;32113;42.012;24.870;2023-02-22T04:51:49;98880.78;;;10.67;37.27
46412;BME280;32113;42.012;24.870;2023-02-22T04:54:15;98886.69;;;10.72;37.09
46412;BME280;32113;42.012;24.870;2023-02-22T04:56:42;98874.56;;;10.83;37.03
46412;BME280;32113;42.012;24.870;2023-02-22T04:59:07;98879.75;;;10.78;36.80
46412;BME280;32113;42.012;24.870;2023-02-22T05:01:34;98871.97;;;10.85;36.97
46412;BME280;32113;42.012;24.870;2023-02-22T05:04:06;98882.31;;;10.82;36.81
46412;BME280;32113;42.012;24.870;2023-02-22T05:06:32;98916.47;;;10.85;37.06
46412;BME280;32113;42.012;24.870;2023-02-22T05:08:57;98877.53;;;10.54;37.26
46412;BME280;32113;42.012;24.870;2023-02-22T05:11:22;98874.00;;;10.61;37.70
46412;BME280;32113;42.012;24.870;2023-02-22T05:13:48;98877.44;;;10.60;37.89
46412;BME280;32113;42.012;24.870;2023-02-22T05:16:14;98869.06;;;10.48;37.90
46412;BME280;32113;42.012;24.870;2023-02-22T05:18:40;98869.16;;;10.39;38.14
46412;BME280;32113;42.012;24.870;2023-02-22T05:21:05;98871.72;;;10.39;38.06
46412;BME280;32113;42.012;24.870;2023-02-22T05:23:31;98871.72;;;10.37;38.02
46412;BME280;32113;42.012;24.870;2023-02-22T05:25:57;98882.03;;;10.31;38.28
46412;BME280;32113;42.012;24.870;2023-02-22T05:28:22;98887.16;;;10.31;38.41
46412;BME280;32113;42.012;24.870;2023-02-22T05:30:47;98888.84;;;10.34;38.43
46412;BME280;32113;42.012;24.870;2023-02-22T05:33:13;98895.75;;;10.29;38.31
46412;BME280;32113;42.012;24.870;2023-02-22T05:35:38;98886.22;;;10.40;38.18
46412;BME280;32113;42.012;24.870;2023-02-22T05:38:04;98892.38;;;10.27;38.48
46412;BME280;32113;42.012;24.870;2023-02-22T05:40:31;98900.03;;;10.30;38.51
46412;BME280;32113;42.012;24.870;2023-02-22T05:42:57;98895.63;;;10.39;38.13
46412;BME280;32113;42.012;24.870;2023-02-22T05:45:24;98902.44;;;10.44;38.01
46412;BME280;32113;42.012;24.870;2023-02-22T05:47:51;98896.47;;;10.40;38.00
46412;BME280;32113;42.012;24.870;2023-02-22T05:50:17;98898.00;;;10.58;37.75
46412;BME280;32113;42.012;24.870;2023-02-22T05:52:44;98891.06;;;10.67;37.62
46412;BME280;32113;42.012;24.870;2023-02-22T05:55:11;98903.06;;;10.63;37.57
46412;BME280;32113;42.012;24.870;2023-02-22T05:57:37;98903.00;;;10.66;37.49
46412;BME280;32113;42.012;24.870;2023-02-22T06:00:04;98898.75;;;10.65;37.50
46412;BME280;32113;42.012;24.870;2023-02-22T06:02:31;98902.22;;;10.61;37.71
46412;BME280;32113;42.012;24.870;2023-02-22T06:04:57;98891.19;;;10.54;37.85
46412;BME280;32113;42.012;24.870;2023-02-22T06:07:22;98906.44;;;10.68;37.20
46412;BME280;32113;42.012;24.870;2023-02-22T06:09:48;98908.00;;;10.78;37.18
46412;BME280;32113;42.012;24.870;2023-02-22T06:12:13;98900.19;;;10.86;37.30
46412;BME280;32113;42.012;24.870;2023-02-22T06:14:40;98905.06;;;11.05;36.32
46412;BME280;32113;42.012;24.870;2023-02-22T06:17:11;98910.06;;;11.13;36.48
46412;BME280;32113;42.012;24.870;2023-02-22T06:19:37;98910.06;;;11.14;36.21
46412;BME280;32113;42.012;24.870;2023-02-22T06:22:04;98914.28;;;11.19;36.46
46412;BME280;32113;42.012;24.870;2023-02-22T06:24:30;98917.63;;;11.24;36.61
46412;BME280;32113;42.012;24.870;2023-02-22T06:26:57;98911.50;;;11.33;36.17
46412;BME280;32113;42.012;24.870;2023-02-22T06:29:27;98903.56;;;11.48;35.80
46412;BME280;32113;42.012;24.870;2023-02-22T06:31:53;98913.72;;;11.54;35.79
46412;BME280;32113;42.012;24.870;2023-02-22T06:34:19;98918.66;;;11.67;35.87
46412;BME280;32113;42.012;24.870;2023-02-22T06:36:46;98914.41;;;11.66;35.38
46412;BME280;32113;42.012;24.870;2023-02-22T06:39:13;98926.47;;;11.61;35.38
46412;BME280;32113;42.012;24.870;2023-02-22T06:41:43;98921.38;;;11.57;35.20
46412;BME280;32113;42.012;24.870;2023-02-22T06:44:10;98917.06;;;11.58;35.51
46412;BME280;32113;42.012;24.870;2023-02-22T06:46:36;98931.53;;;11.65;35.43
46412;BME280;32113;42.012;24.870;2023-02-22T06:49:02;98920.47;;;11.62;35.57
46412;BME280;32113;42.012;24.870;2023-02-22T06:51:29;98923.72;;;11.72;35.87
46412;BME280;32113;42.012;24.870;2023-02-22T06:53:54;98926.13;;;11.81;35.55
46412;BME280;32113;42.012;24.870;2023-02-22T06:56:20;98929.53;;;11.83;35.84
46412;BME280;32113;42.012;24.870;2023-02-22T06:58:45;98934.69;;;11.83;35.68
46412;BME280;32113;42.012;24.870;2023-02-22T07:01:11;98933.00;;;11.80;35.35
46412;BME280;32113;42.012;24.870;2023-02-22T07:03:37;98933.78;;;11.86;35.51
46412;BME280;32113;42.012;24.870;2023-02-22T07:06:03;98933.78;;;11.84;35.57
46412;BME280;32113;42.012;24.870;2023-02-22T07:08:29;98932.06;;;11.85;35.58
46412;BME280;32113;42.012;24.870;2023-02-22T07:10:54;98929.56;;;11.80;35.72
46412;BME280;32113;42.012;24.870;2023-02-22T07:13:20;98931.25;;;11.82;36.27
46412;BME280;32113;42.012;24.870;2023-02-22T07:15:45;98933.69;;;11.90;35.33
46412;BME280;32113;42.012;24.870;2023-02-22T07:18:11;98932.56;;;12.07;35.68
46412;BME280;32113;42.012;24.870;2023-02-22T07:20:38;98926.25;;;12.24;35.08
46412;BME280;32113;42.012;24.870;2023-02-22T07:23:04;98919.19;;;12.35;35.13
46412;BME280;32113;42.012;24.870;2023-02-22T07:25:30;98921.56;;;12.46;34.77
46412;BME280;32113;42.012;24.870;2023-02-22T07:27:55;98924.81;;;12.53;34.84
46412;BME280;32113;42.012;24.870;2023-02-22T07:30:26;98927.94;;;12.69;34.79
46412;BME280;32113;42.012;24.870;2023-02-22T07:32:55;98920.94;;;12.74;34.67
46412;BME280;32113;42.012;24.870;2023-02-22T07:37:52;98921.59;;;12.84;34.02
46412;BME280;32113;42.012;24.870;2023-02-22T07:40:18;98925.63;;;12.96;33.66
46412;BME280;32113;42.012;24.870;2023-02-22T07:45:41;98914.13;;;13.12;34.30
46412;BME280;32113;42.012;24.870;2023-02-22T07:48:07;98919.28;;;13.12;34.27
46412;BME280;32113;42.012;24.870;2023-02-22T07:50:33;98912.34;;;13.14;33.75
46412;BME280;32113;42.012;24.870;2023-02-22T07:53:02;98908.81;;;13.19;33.38
46412;BME280;32113;42.012;24.870;2023-02-22T07:55:30;98905.97;;;13.31;33.97
46412;BME280;32113;42.012;24.870;2023-02-22T07:57:57;98901.41;;;13.41;33.47
46412;BME280;32113;42.012;24.870;2023-02-22T08:02:49;98903.28;;;13.72;33.34
46412;BME280;32113;42.012;24.870;2023-02-22T08:05:15;98897.59;;;13.92;32.56
46412;BME280;32113;42.012;24.870;2023-02-22T08:07:40;98902.06;;;14.19;32.52
46412;BME280;32113;42.012;24.870;2023-02-22T08:10:08;98890.94;;;14.47;32.03
46412;BME280;32113;42.012;24.870;2023-02-22T08:12:35;98897.44;;;14.61;31.51
46412;BME280;32113;42.012;24.870;2023-02-22T08:15:03;98884.00;;;14.79;31.54
46412;BME280;32113;42.012;24.870;2023-02-22T08:17:29;98888.81;;;14.90;31.44
46412;BME280;32113;42.012;24.870;2023-02-22T08:19:55;98893.53;;;15.06;31.37
46412;BME280;32113;42.012;24.870;2023-02-22T08:22:21;98877.28;;;15.29;31.08
46412;BME280;32113;42.012;24.870;2023-02-22T08:24:46;98884.22;;;15.54;30.62
46412;BME280;32113;42.012;24.870;2023-02-22T08:27:11;98881.88;;;15.73;30.40
46412;BME280;32113;42.012;24.870;2023-02-22T08:29:37;98885.44;;;15.96;30.34
46412;BME280;32113;42.012;24.870;2023-02-22T08:32:02;98882.25;;;16.13;30.00
46412;BME280;32113;42.012;24.870;2023-02-22T08:34:28;98879.94;;;16.29;29.57
46412;BME280;32113;42.012;24.870;2023-02-22T08:36:53;98882.28;;;16.60;29.17
46412;BME280;32113;42.012;24.870;2023-02-22T08:39:19;98865.91;;;16.81;29.16
46412;BME280;32113;42.012;24.870;2023-02-22T08:41:45;98862.44;;;17.05;29.01
46412;BME280;32113;42.012;24.870;2023-02-22T08:44:10;98866.69;;;17.28;28.69
46412;BME280;32113;42.012;24.870;2023-02-22T08:46:36;98863.00;;;17.55;28.13
46412;BME280;32113;42.012;24.870;2023-02-22T08:49:01;98851.44;;;17.83;27.79
46412;BME280;32113;42.012;24.870;2023-02-22T08:51:27;98848.66;;;18.08;27.27
46412;BME280;32113;42.012;24.870;2023-02-22T08:53:53;98844.25;;;18.30;27.45
46412;BME280;32113;42.012;24.870;2023-02-22T08:56:19;98840.38;;;18.58;26.49
46412;BME280;32113;42.012;24.870;2023-02-22T08:58:45;98835.53;;;18.87;25.87
46412;BME280;32113;42.012;24.870;2023-02-22T09:01:10;98827.34;;;19.14;25.96
46412;BME280;32113;42.012;24.870;2023-02-22T09:03:36;98832.69;;;19.46;25.56
46412;BME280;32113;42.012;24.870;2023-02-22T09:06:03;98834.56;;;19.78;24.96
46412;BME280;32113;42.012;24.870;2023-02-22T09:08:29;98839.16;;;20.06;24.19
46412;BME280;32113;42.012;24.870;2023-02-22T09:10:54;98833.69;;;20.29;23.31
46412;BME280;32113;42.012;24.870;2023-02-22T09:13:19;98839.47;;;20.50;22.93
46412;BME280;32113;42.012;24.870;2023-02-22T09:15:45;98829.75;;;20.84;22.51
46412;BME280;32113;42.012;24.870;2023-02-22T09:18:12;98830.22;;;21.23;22.52
46412;BME280;32113;42.012;24.870;2023-02-22T09:20:38;98826.53;;;21.57;21.79
46412;BME280;32113;42.012;24.870;2023-02-22T09:23:05;98826.09;;;21.94;21.36
46412;BME280;32113;42.012;24.870;2023-02-22T09:25:30;98815.97;;;22.31;21.01
46412;BME280;32113;42.012;24.870;2023-02-22T09:27:56;98823.22;;;22.55;20.65
46412;BME280;32113;42.012;24.870;2023-02-22T09:30:34;98824.31;;;22.65;20.34
46412;BME280;32113;42.012;24.870;2023-02-22T09:33:19;98822.03;;;22.74;20.21
46412;BME280;32113;42.012;24.870;2023-02-22T09:35:47;98817.09;;;22.96;19.94
46412;BME280;32113;42.012;24.870;2023-02-22T09:38:16;98805.84;;;23.22;19.52
46412;BME280;32113;42.012;24.870;2023-02-22T09:40:45;98807.09;;;23.29;19.57
46412;BME280;32113;42.012;24.870;2023-02-22T09:43:36;98821.38;;;23.64;19.83
46412;BME280;32113;42.012;24.870;2023-02-22T09:54:55;98804.91;;;23.88;19.19
46412;BME280;32113;42.012;24.870;2023-02-22T09:57:33;98794.03;;;23.81;19.28
46412;BME280;32113;42.012;24.870;2023-02-22T10:00:05;98793.03;;;24.08;19.22
46412;BME280;32113;42.012;24.870;2023-02-22T10:05:46;98781.25;;;24.27;18.54
46412;BME280;32113;42.012;24.870;2023-02-22T10:08:15;98792.75;;;24.37;18.59
46412;BME280;32113;42.012;24.870;2023-02-22T10:10:45;98797.63;;;24.31;18.03
46412;BME280;32113;42.012;24.870;2023-02-22T10:13:28;98788.97;;;24.41;18.07
46412;BME280;32113;42.012;24.870;2023-02-22T10:18:55;98774.09;;;24.42;18.30
46412;BME280;32113;42.012;24.870;2023-02-22T10:25:00;98768.63;;;24.45;18.42
46412;BME280;32113;42.012;24.870;2023-02-22T10:27:41;98753.22;;;24.65;18.11
46412;BME280;32113;42.012;24.870;2023-02-22T10:32:46;98750.47;;;25.02;17.74
46412;BME280;32113;42.012;24.870;2023-02-22T10:35:20;98747.50;;;24.96;17.33
46412;BME280;32113;42.012;24.870;2023-02-22T10:37:47;98741.66;;;24.92;17.29
46412;BME280;32113;42.012;24.870;2023-02-22T10:40:19;98738.66;;;24.85;17.73
46412;BME280;32113;42.012;24.870;2023-02-22T10:42:48;98736.13;;;24.84;17.62
46412;BME280;32113;42.012;24.870;2023-02-22T10:45:30;98732.31;;;24.88;17.24
46412;BME280;32113;42.012;24.870;2023-02-22T10:48:18;98723.38;;;24.90;17.59
46412;BME280;32113;42.012;24.870;2023-02-22T10:50:45;98721.84;;;24.63;17.51
46412;BME280;32113;42.012;24.870;2023-02-22T10:53:12;98717.09;;;24.69;17.86
46412;BME280;32113;42.012;24.870;2023-02-22T10:58:41;98700.44;;;24.81;17.49
46412;BME280;32113;42.012;24.870;2023-02-22T11:01:24;98707.16;;;24.85;17.41
46412;BME280;32113;42.012;24.870;2023-02-22T11:04:15;98703.81;;;24.83;16.99
46412;BME280;32113;42.012;24.870;2023-02-22T11:06:43;98705.91;;;24.78;17.27
46412;BME280;32113;42.012;24.870;2023-02-22T11:09:17;98698.41;;;24.73;17.46
46412;BME280;32113;42.012;24.870;2023-02-22T11:11:45;98704.00;;;24.80;17.01
46412;BME280;32113;42.012;24.870;2023-02-22T11:14:33;98701.50;;;24.78;17.02
46412;BME280;32113;42.012;24.870;2023-02-22T11:16:59;98691.56;;;24.59;17.25
46412;BME280;32113;42.012;24.870;2023-02-22T11:19:26;98691.84;;;24.79;17.39
46412;BME280;32113;42.012;24.870;2023-02-22T11:21:55;98689.94;;;24.81;17.09
46412;BME280;32113;42.012;24.870;2023-02-22T11:24:22;98682.03;;;24.70;16.99
46412;BME280;32113;42.012;24.870;2023-02-22T11:26:54;98677.72;;;24.57;16.71
46412;BME280;32113;42.012;24.870;2023-02-22T11:29:28;98671.25;;;24.50;17.00
46412;BME280;32113;42.012;24.870;2023-02-22T11:32:17;98676.00;;;24.45;17.43
46412;BME280;32113;42.012;24.870;2023-02-22T11:34:48;98672.09;;;24.50;17.42
46412;BME280;32113;42.012;24.870;2023-02-22T11:42:32;98666.47;;;24.44;16.78
46412;BME280;32113;42.012;24.870;2023-02-22T11:47:54;98662.91;;;24.45;17.25
46412;BME280;32113;42.012;24.870;2023-02-22T11:53:40;98645.78;;;24.52;17.47
46412;BME280;32113;42.012;24.870;2023-02-22T12:10:29;98626.88;;;24.35;18.26
46412;BME280;32113;42.012;24.870;2023-02-22T12:21:57;98618.75;;;24.27;17.70
46412;BME280;32113;42.012;24.870;2023-02-22T12:24:33;98622.91;;;24.18;18.09
46412;BME280;32113;42.012;24.870;2023-02-22T12:27:06;98611.38;;;24.32;17.87
46412;BME280;32113;42.012;24.870;2023-02-22T12:29:43;98616.28;;;24.37;18.02
46412;BME280;32113;42.012;24.870;2023-02-22T12:34:56;98609.00;;;24.05;18.20
46412;BME280;32113;42.012;24.870;2023-02-22T12:37:31;98609.97;;;24.04;18.32
46412;BME280;32113;42.012;24.870;2023-02-22T12:42:57;98608.66;;;24.34;18.21
46412;BME280;32113;42.012;24.870;2023-02-22T12:50:38;98596.78;;;24.52;17.96
46412;BME280;32113;42.012;24.870;2023-02-22T12:56:19;98599.50;;;24.51;17.87
46412;BME280;32113;42.012;24.870;2023-02-22T12:58:59;98604.00;;;24.37;17.94
46412;BME280;32113;42.012;24.870;2023-02-22T13:02:11;98591.97;;;24.35;18.18
46412;BME280;32113;42.012;24.870;2023-02-22T13:04:35;98593.41;;;24.39;18.38
46412;BME280;32113;42.012;24.870;2023-02-22T13:15:29;98597.56;;;24.30;17.85
46412;BME280;32113;42.012;24.870;2023-02-22T13:21:10;98600.06;;;24.32;18.14
46412;BME280;32113;42.012;24.870;2023-02-22T13:23:53;98595.66;;;24.32;18.13
46412;BME280;32113;42.012;24.870;2023-02-22T13:26:34;98592.09;;;24.33;18.14
46412;BME280;32113;42.012;24.870;2023-02-22T13:53:53;98594.09;;;24.18;18.36
46412;BME280;32113;42.012;24.870;2023-02-22T13:56:22;98592.66;;;24.25;18.14
46412;BME280;32113;42.012;24.870;2023-02-22T13:58:56;98590.56;;;24.31;18.11
46412;BME280;32113;42.012;24.870;2023-02-22T14:01:45;98594.84;;;24.43;18.05
46412;BME280;32113;42.012;24.870;2023-02-22T14:04:21;98600.19;;;24.41;18.13
46412;BME280;32113;42.012;24.870;2023-02-22T14:07:02;98592.31;;;24.30;17.75
46412;BME280;32113;42.012;24.870;2023-02-22T14:09:47;98594.72;;;24.33;17.73
46412;BME280;32113;42.012;24.870;2023-02-22T14:17:38;98588.97;;;24.28;18.02
46412;BME280;32113;42.012;24.870;2023-02-22T14:22:41;98594.47;;;24.25;17.82
46412;BME280;32113;42.012;24.870;2023-02-22T14:25:36;98598.84;;;24.24;17.86
46412;BME280;32113;42.012;24.870;2023-02-22T14:28:06;98593.03;;;24.32;18.01
46412;BME280;32113;42.012;24.870;2023-02-22T14:30:35;98591.38;;;24.31;17.64
46412;BME280;32113;42.012;24.870;2023-02-22T14:33:02;98593.53;;;24.37;17.65
46412;BME280;32113;42.012;24.870;2023-02-22T14:35:38;98586.00;;;24.33;17.83
46412;BME280;32113;42.012;24.870;2023-02-22T14:38:13;98589.94;;;24.27;17.90
46412;BME280;32113;42.012;24.870;2023-02-22T14:40:43;98589.09;;;24.26;18.28
46412;BME280;32113;42.012;24.870;2023-02-22T14:43:15;98588.84;;;24.30;17.96
46412;BME280;32113;42.012;24.870;2023-02-22T14:45:57;98589.31;;;24.12;17.91
46412;BME280;32113;42.012;24.870;2023-02-22T14:48:38;98585.53;;;24.03;18.08
46412;BME280;32113;42.012;24.870;2023-02-22T14:51:12;98579.91;;;23.96;17.91
46412;BME280;32113;42.012;24.870;2023-02-22T14:53:48;98582.16;;;23.89;18.05
46412;BME280;32113;42.012;24.870;2023-02-22T15:01:29;98584.53;;;23.68;18.71
46412;BME280;32113;42.012;24.870;2023-02-22T15:04:15;98587.00;;;23.58;18.88
46412;BME280;32113;42.012;24.870;2023-02-22T15:06:40;98582.34;;;23.38;19.24
46412;BME280;32113;42.012;24.870;2023-02-22T15:09:19;98594.50;;;23.26;19.50
46412;BME280;32113;42.012;24.870;2023-02-22T15:12:14;98598.81;;;23.14;19.55
46412;BME280;32113;42.012;24.870;2023-02-22T15:14:39;98598.75;;;23.02;19.81
46412;BME280;32113;42.012;24.870;2023-02-22T15:17:11;98593.41;;;22.78;20.30
46412;BME280;32113;42.012;24.870;2023-02-22T15:19:40;98604.28;;;22.58;20.62
46412;BME280;32113;42.012;24.870;2023-02-22T15:22:18;98605.81;;;22.48;20.42
46412;BME280;32113;42.012;24.870;2023-02-22T15:24:46;98600.38;;;22.38;20.81
46412;BME280;32113;42.012;24.870;2023-02-22T15:27:20;98599.19;;;22.29;20.88
46412;BME280;32113;42.012;24.870;2023-02-22T15:29:46;98603.34;;;22.19;21.11
46412;BME280;32113;42.012;24.870;2023-02-22T15:32:37;98597.50;;;22.15;21.05
46412;BME280;32113;42.012;24.870;2023-02-22T15:35:25;98598.31;;;22.03;21.49
46412;BME280;32113;42.012;24.870;2023-02-22T15:38:19;98591.06;;;21.94;21.37
46412;BME280;32113;42.012;24.870;2023-02-22T15:40:47;98598.31;;;21.75;21.46
46412;BME280;32113;42.012;24.870;2023-02-22T15:43:24;98594.91;;;21.46;21.70
46412;BME280;32113;42.012;24.870;2023-02-22T15:45:53;98598.03;;;21.23;21.89
46412;BME280;32113;42.012;24.870;2023-02-22T15:48:18;98603.53;;;21.04;21.97